sensor_id;sensor_type;location;lat;lon;timestamp;P1;durP1;ratioP1;P2;durP2;ratioP2
9224;SDS011;4647;48.072;11.616;2024-01-07T00:01:16;20.13;;;18.33;;
9224;SDS011;4647;48.072;11.616;2024-01-07T00:03:45;21.83;;;19.57;;
9224;SDS011;4647;48.072;11.616;2024-01-07T00:06:16;22.03;;;19.93;;
9224;SDS011;4647;48.072;11.616;2024-01-07T00:08:45;21.40;;;19.40;;
9224;SDS011;4647;48.072;11.616;2024-01-07T00:11:13;20.43;;;18.33;;
9224;SDS011;4647;48.072;11.616;2024-01-07T00:13:42;22.87;;;20.63;;
9224;SDS011;4647;48.072;11.616;2024-01-07T00:16:10;22.27;;;20.17;;
9224;SDS011;4647;48.072;11.616;2024-01-07T00:18:38;21.57;;;19.47;;
9224;SDS011;4647;48.072;11.616;2024-01-07T00:21:07;21.30;;;19.30;;
9224;SDS011;4647;48.072;11.616;2024-01-07T00:23:38;23.53;;;21.23;;
9224;SDS011;4647;48.072;11.616;2024-01-07T00:26:07;24.83;;;22.43;;
9224;SDS011;4647;48.072;11.616;2024-01-07T00:28:35;23.57;;;21.37;;
9224;SDS011;4647;48.072;11.616;2024-01-07T00:31:04;26.63;;;23.93;;
9224;SDS011;4647;48.072;11.616;2024-01-07T00:33:34;22.47;;;20.27;;
9224;SDS011;4647;48.072;11.616;2024-01-07T00:36:03;24.33;;;22.03;;
9224;SDS011;4647;48.072;11.616;2024-01-07T00:38:31;25.63;;;23.13;;
9224;SDS011;4647;48.072;11.616;2024-01-07T00:41:03;26.33;;;23.80;;
9224;SDS011;4647;48.072;11.616;2024-01-07T00:43:31;24.03;;;21.77;;
9224;SDS011;4647;48.072;11.616;2024-01-07T00:46:00;25.07;;;22.40;;
9224;SDS011;4647;48.072;11.616;2024-01-07T00:48:31;25.67;;;23.20;;
9224;SDS011;4647;48.072;11.616;2024-01-07T00:51:00;25.57;;;23.20;;
9224;SDS011;4647;48.072;11.616;2024-01-07T00:53:28;24.53;;;22.13;;
9224;SDS011;4647;48.072;11.616;2024-01-07T00:55:57;25.30;;;22.80;;
9224;SDS011;4647;48.072;11.616;2024-01-07T00:58:28;31.20;;;27.97;;
9224;SDS011;4647;48.072;11.616;2024-01-07T01:00:56;26.03;;;23.33;;
9224;SDS011;4647;48.072;11.616;2024-01-07T01:03:25;25.30;;;22.80;;
9224;SDS011;4647;48.072;11.616;2024-01-07T01:05:54;26.00;;;23.30;;
9224;SDS011;4647;48.072;11.616;2024-01-07T01:08:22;26.00;;;23.50;;
9224;SDS011;4647;48.072;11.616;2024-01-07T01:10:51;28.17;;;25.37;;
9224;SDS011;4647;48.072;11.616;2024-01-07T01:13:21;25.90;;;23.43;;
9224;SDS011;4647;48.072;11.616;2024-01-07T01:15:52;25.20;;;22.80;;
9224;SDS011;4647;48.072;11.616;2024-01-07T01:18:20;24.97;;;22.53;;
9224;SDS011;4647;48.072;11.616;2024-01-07T01:20:49;24.83;;;22.43;;
9224;SDS011;4647;48.072;11.616;2024-01-07T01:23:20;25.07;;;22.57;;
9224;SDS011;4647;48.072;11.616;2024-01-07T01:25:48;28.03;;;25.33;;
9224;SDS011;4647;48.072;11.616;2024-01-07T01:28:19;24.03;;;21.83;;
9224;SDS011;4647;48.072;11.616;2024-01-07T01:30:51;25.33;;;22.83;;
9224;SDS011;4647;48.072;11.616;2024-01-07T01:33:20;25.00;;;22.67;;
9224;SDS011;4647;48.072;11.616;2024-01-07T01:35:49;24.33;;;22.03;;
9224;SDS011;4647;48.072;11.616;2024-01-07T01:38:17;24.87;;;22.53;;
9224;SDS011;4647;48.072;11.616;2024-01-07T01:40:50;22.67;;;20.57;;
9224;SDS011;4647;48.072;11.616;2024-01-07T01:43:23;27.13;;;24.37;;
9224;SDS011;4647;48.072;11.616;2024-01-07T01:45:55;24.97;;;22.57;;
9224;SDS011;4647;48.072;11.616;2024-01-07T01:48:24;22.70;;;20.60;;
9224;SDS011;4647;48.072;11.616;2024-01-07T01:50:54;23.33;;;21.03;;
9224;SDS011;4647;48.072;11.616;2024-01-07T01:53:23;22.63;;;20.53;;
9224;SDS011;4647;48.072;11.616;2024-01-07T01:55:53;21.10;;;19.10;;
9224;SDS011;4647;48.072;11.616;2024-01-07T01:58:26;21.47;;;19.57;;
9224;SDS011;4647;48.072;11.616;2024-01-07T02:00:59;23.10;;;20.80;;
9224;SDS011;4647;48.072;11.616;2024-01-07T02:03:28;20.63;;;18.73;;
9224;SDS011;4647;48.072;11.616;2024-01-07T02:05:57;25.03;;;22.47;;
9224;SDS011;4647;48.072;11.616;2024-01-07T02:08:26;20.10;;;18.30;;
9224;SDS011;4647;48.072;11.616;2024-01-07T02:10:54;20.97;;;19.07;;
9224;SDS011;4647;48.072;11.616;2024-01-07T02:13:23;22.03;;;19.93;;
9224;SDS011;4647;48.072;11.616;2024-01-07T02:15:51;18.97;;;17.17;;
9224;SDS011;4647;48.072;11.616;2024-01-07T02:18:22;19.53;;;17.77;;
9224;SDS011;4647;48.072;11.616;2024-01-07T02:20:51;18.97;;;17.17;;
9224;SDS011;4647;48.072;11.616;2024-01-07T02:23:19;19.83;;;18.03;;
9224;SDS011;4647;48.072;11.616;2024-01-07T02:25:50;22.47;;;20.30;;
9224;SDS011;4647;48.072;11.616;2024-01-07T02:28:19;18.17;;;16.63;;
9224;SDS011;4647;48.072;11.616;2024-01-07T02:30:47;18.40;;;16.80;;
9224;SDS011;4647;48.072;11.616;2024-01-07T02:33:15;16.70;;;15.30;;
9224;SDS011;4647;48.072;11.616;2024-01-07T02:35:45;17.17;;;15.67;;
9224;SDS011;4647;48.072;11.616;2024-01-07T02:38:14;14.07;;;12.87;;
9224;SDS011;4647;48.072;11.616;2024-01-07T02:40:42;16.67;;;15.27;;
9224;SDS011;4647;48.072;11.616;2024-01-07T02:43:13;15.40;;;14.00;;
9224;SDS011;4647;48.072;11.616;2024-01-07T02:45:42;13.30;;;12.20;;
9224;SDS011;4647;48.072;11.616;2024-01-07T02:48:10;14.53;;;13.30;;
9224;SDS011;4647;48.072;11.616;2024-01-07T02:50:42;13.40;;;12.20;;
9224;SDS011;4647;48.072;11.616;2024-01-07T02:53:11;13.37;;;12.17;;
9224;SDS011;4647;48.072;11.616;2024-01-07T02:55:39;16.53;;;14.97;;
9224;SDS011;4647;48.072;11.616;2024-01-07T02:58:08;15.20;;;13.80;;
9224;SDS011;4647;48.072;11.616;2024-01-07T03:00:39;15.27;;;13.97;;
9224;SDS011;4647;48.072;11.616;2024-01-07T03:03:07;16.93;;;15.33;;
9224;SDS011;4647;48.072;11.616;2024-01-07T03:05:36;15.00;;;13.70;;
9224;SDS011;4647;48.072;11.616;2024-01-07T03:08:06;14.53;;;13.23;;
9224;SDS011;4647;48.072;11.616;2024-01-07T03:10:34;15.03;;;13.73;;
9224;SDS011;4647;48.072;11.616;2024-01-07T03:13:03;13.43;;;12.23;;
9224;SDS011;4647;48.072;11.616;2024-01-07T03:15:32;17.23;;;15.63;;
9224;SDS011;4647;48.072;11.616;2024-01-07T03:18:03;15.00;;;13.70;;
9224;SDS011;4647;48.072;11.616;2024-01-07T03:20:33;13.37;;;12.27;;
9224;SDS011;4647;48.072;11.616;2024-01-07T03:23:01;14.33;;;13.03;;
9224;SDS011;4647;48.072;11.616;2024-01-07T03:25:30;14.90;;;13.60;;
9224;SDS011;4647;48.072;11.616;2024-01-07T03:27:58;15.37;;;13.97;;
9224;SDS011;4647;48.072;11.616;2024-01-07T03:30:27;16.83;;;15.43;;
9224;SDS011;4647;48.072;11.616;2024-01-07T03:32:55;15.83;;;14.43;;
9224;SDS011;4647;48.072;11.616;2024-01-07T03:35:27;16.07;;;14.63;;
9224;SDS011;4647;48.072;11.616;2024-01-07T03:37:55;16.90;;;15.43;;
9224;SDS011;4647;48.072;11.616;2024-01-07T03:40:24;16.20;;;14.70;;
9224;SDS011;4647;48.072;11.616;2024-01-07T03:42:52;16.20;;;14.80;;
9224;SDS011;4647;48.072;11.616;2024-01-07T03:45:21;16.07;;;14.57;;
9224;SDS011;4647;48.072;11.616;2024-01-07T03:47:49;17.20;;;15.70;;
9224;SDS011;4647;48.072;11.616;2024-01-07T03:50:18;16.37;;;14.97;;
9224;SDS011;4647;48.072;11.616;2024-01-07T03:52:49;17.33;;;15.80;;
9224;SDS011;4647;48.072;11.616;2024-01-07T03:55:18;17.50;;;15.90;;
9224;SDS011;4647;48.072;11.616;2024-01-07T03:57:46;17.50;;;16.00;;
9224;SDS011;4647;48.072;11.616;2024-01-07T04:00:14;16.17;;;14.67;;
9224;SDS011;4647;48.072;11.616;2024-01-07T04:02:43;16.63;;;15.13;;
9224;SDS011;4647;48.072;11.616;2024-01-07T04:05:12;18.23;;;16.63;;
9224;SDS011;4647;48.072;11.616;2024-01-07T04:07:41;19.27;;;17.57;;
9224;SDS011;4647;48.072;11.616;2024-01-07T04:10:12;17.90;;;16.30;;
9224;SDS011;4647;48.072;11.616;2024-01-07T04:12:40;17.67;;;16.07;;
9224;SDS011;4647;48.072;11.616;2024-01-07T04:15:10;17.23;;;15.70;;
9224;SDS011;4647;48.072;11.616;2024-01-07T04:17:39;19.37;;;17.53;;
9224;SDS011;4647;48.072;11.616;2024-01-07T04:20:08;15.90;;;14.47;;
9224;SDS011;4647;48.072;11.616;2024-01-07T04:22:40;15.77;;;14.37;;
9224;SDS011;4647;48.072;11.616;2024-01-07T04:25:08;16.20;;;14.87;;
9224;SDS011;4647;48.072;11.616;2024-01-07T04:27:39;15.70;;;14.40;;
9224;SDS011;4647;48.072;11.616;2024-01-07T04:30:08;16.43;;;15.03;;
9224;SDS011;4647;48.072;11.616;2024-01-07T04:32:40;15.50;;;14.20;;
9224;SDS011;4647;48.072;11.616;2024-01-07T04:35:10;15.43;;;14.13;;
9224;SDS011;4647;48.072;11.616;2024-01-07T04:37:39;14.77;;;13.57;;
9224;SDS011;4647;48.072;11.616;2024-01-07T04:40:08;17.07;;;15.50;;
9224;SDS011;4647;48.072;11.616;2024-01-07T04:42:42;15.30;;;14.10;;
9224;SDS011;4647;48.072;11.616;2024-01-07T04:45:10;15.50;;;14.27;;
9224;SDS011;4647;48.072;11.616;2024-01-07T04:47:41;14.23;;;12.93;;
9224;SDS011;4647;48.072;11.616;2024-01-07T04:50:09;16.00;;;14.70;;
9224;SDS011;4647;48.072;11.616;2024-01-07T04:52:40;16.63;;;15.23;;
9224;SDS011;4647;48.072;11.616;2024-01-07T04:55:08;16.93;;;15.43;;
9224;SDS011;4647;48.072;11.616;2024-01-07T04:57:39;16.07;;;14.70;;
9224;SDS011;4647;48.072;11.616;2024-01-07T05:00:10;16.90;;;15.47;;
9224;SDS011;4647;48.072;11.616;2024-01-07T05:02:40;16.30;;;14.90;;
9224;SDS011;4647;48.072;11.616;2024-01-07T05:05:08;16.67;;;15.27;;
9224;SDS011;4647;48.072;11.616;2024-01-07T05:07:37;16.83;;;15.43;;
9224;SDS011;4647;48.072;11.616;2024-01-07T05:10:06;16.83;;;15.40;;
9224;SDS011;4647;48.072;11.616;2024-01-07T05:12:35;17.20;;;15.70;;
9224;SDS011;4647;48.072;11.616;2024-01-07T05:15:08;16.80;;;15.40;;
9224;SDS011;4647;48.072;11.616;2024-01-07T05:17:37;18.73;;;17.13;;
9224;SDS011;4647;48.072;11.616;2024-01-07T05:20:06;17.70;;;16.20;;
9224;SDS011;4647;48.072;11.616;2024-01-07T05:22:36;18.13;;;16.60;;
9224;SDS011;4647;48.072;11.616;2024-01-07T05:25:07;18.73;;;17.13;;
9224;SDS011;4647;48.072;11.616;2024-01-07T05:27:36;17.63;;;16.13;;
9224;SDS011;4647;48.072;11.616;2024-01-07T05:30:07;18.33;;;16.80;;
9224;SDS011;4647;48.072;11.616;2024-01-07T05:32:39;17.67;;;16.13;;
9224;SDS011;4647;48.072;11.616;2024-01-07T05:35:07;18.30;;;16.80;;
9224;SDS011;4647;48.072;11.616;2024-01-07T05:37:36;18.80;;;17.13;;
9224;SDS011;4647;48.072;11.616;2024-01-07T05:40:05;18.33;;;16.73;;
9224;SDS011;4647;48.072;11.616;2024-01-07T05:42:36;17.73;;;16.23;;
9224;SDS011;4647;48.072;11.616;2024-01-07T05:45:07;18.50;;;16.90;;
9224;SDS011;4647;48.072;11.616;2024-01-07T05:47:39;16.07;;;14.77;;
9224;SDS011;4647;48.072;11.616;2024-01-07T05:50:08;18.43;;;16.80;;
9224;SDS011;4647;48.072;11.616;2024-01-07T05:52:41;14.80;;;13.60;;
9224;SDS011;4647;48.072;11.616;2024-01-07T05:55:10;14.40;;;13.20;;
9224;SDS011;4647;48.072;11.616;2024-01-07T05:57:39;15.20;;;14.00;;
9224;SDS011;4647;48.072;11.616;2024-01-07T06:00:08;18.37;;;16.73;;
9224;SDS011;4647;48.072;11.616;2024-01-07T06:02:41;15.07;;;13.80;;
9224;SDS011;4647;48.072;11.616;2024-01-07T06:05:09;14.37;;;13.17;;
9224;SDS011;4647;48.072;11.616;2024-01-07T06:07:39;14.23;;;13.13;;
9224;SDS011;4647;48.072;11.616;2024-01-07T06:10:08;15.23;;;13.93;;
9224;SDS011;4647;48.072;11.616;2024-01-07T06:12:37;27.37;;;24.43;;
9224;SDS011;4647;48.072;11.616;2024-01-07T06:15:05;18.70;;;16.90;;
9224;SDS011;4647;48.072;11.616;2024-01-07T06:17:34;28.57;;;25.17;;
9224;SDS011;4647;48.072;11.616;2024-01-07T06:20:06;16.03;;;14.73;;
9224;SDS011;4647;48.072;11.616;2024-01-07T06:22:35;15.57;;;14.27;;
9224;SDS011;4647;48.072;11.616;2024-01-07T06:25:04;15.93;;;14.63;;
9224;SDS011;4647;48.072;11.616;2024-01-07T06:27:34;25.47;;;22.83;;
9224;SDS011;4647;48.072;11.616;2024-01-07T06:30:04;19.87;;;18.00;;
9224;SDS011;4647;48.072;11.616;2024-01-07T06:32:33;19.77;;;17.90;;
9224;SDS011;4647;48.072;11.616;2024-01-07T06:35:05;18.07;;;16.37;;
9224;SDS011;4647;48.072;11.616;2024-01-07T06:37:34;21.67;;;19.50;;
9224;SDS011;4647;48.072;11.616;2024-01-07T06:40:02;25.87;;;23.17;;
9224;SDS011;4647;48.072;11.616;2024-01-07T06:42:32;24.73;;;22.20;;
9224;SDS011;4647;48.072;11.616;2024-01-07T06:45:01;24.20;;;21.73;;
9224;SDS011;4647;48.072;11.616;2024-01-07T06:47:29;20.80;;;18.80;;
9224;SDS011;4647;48.072;11.616;2024-01-07T06:49:58;19.57;;;17.60;;
9224;SDS011;4647;48.072;11.616;2024-01-07T06:52:29;19.37;;;17.67;;
9224;SDS011;4647;48.072;11.616;2024-01-07T06:54:58;18.70;;;17.07;;
9224;SDS011;4647;48.072;11.616;2024-01-07T06:57:26;29.33;;;26.27;;
9224;SDS011;4647;48.072;11.616;2024-01-07T06:59:55;31.57;;;27.20;;
9224;SDS011;4647;48.072;11.616;2024-01-07T07:02:23;25.20;;;22.60;;
9224;SDS011;4647;48.072;11.616;2024-01-07T07:04:52;26.00;;;23.37;;
9224;SDS011;4647;48.072;11.616;2024-01-07T07:07:20;31.33;;;27.93;;
9224;SDS011;4647;48.072;11.616;2024-01-07T07:09:51;20.83;;;18.93;;
9224;SDS011;4647;48.072;11.616;2024-01-07T07:12:19;26.07;;;23.37;;
9224;SDS011;4647;48.072;11.616;2024-01-07T07:14:48;31.60;;;28.37;;
9224;SDS011;4647;48.072;11.616;2024-01-07T07:17:16;27.50;;;24.70;;
9224;SDS011;4647;48.072;11.616;2024-01-07T07:19:46;29.97;;;26.83;;
9224;SDS011;4647;48.072;11.616;2024-01-07T07:22:14;33.43;;;29.83;;
9224;SDS011;4647;48.072;11.616;2024-01-07T07:24:43;26.47;;;23.73;;
9224;SDS011;4647;48.072;11.616;2024-01-07T07:27:14;26.83;;;24.07;;
9224;SDS011;4647;48.072;11.616;2024-01-07T07:29:42;23.33;;;21.03;;
9224;SDS011;4647;48.072;11.616;2024-01-07T07:32:13;25.40;;;22.77;;
9224;SDS011;4647;48.072;11.616;2024-01-07T07:34:41;20.33;;;18.40;;
9224;SDS011;4647;48.072;11.616;2024-01-07T07:37:10;22.97;;;20.57;;
9224;SDS011;4647;48.072;11.616;2024-01-07T07:39:38;29.00;;;25.80;;
9224;SDS011;4647;48.072;11.616;2024-01-07T07:42:08;19.30;;;17.50;;
9224;SDS011;4647;48.072;11.616;2024-01-07T07:44:39;23.23;;;21.00;;
9224;SDS011;4647;48.072;11.616;2024-01-07T07:47:08;21.90;;;19.67;;
9224;SDS011;4647;48.072;11.616;2024-01-07T07:49:37;23.67;;;21.17;;
9224;SDS011;4647;48.072;11.616;2024-01-07T07:52:06;21.50;;;19.50;;
9224;SDS011;4647;48.072;11.616;2024-01-07T07:54:36;22.13;;;20.00;;
9224;SDS011;4647;48.072;11.616;2024-01-07T07:57:05;27.33;;;24.17;;
9224;SDS011;4647;48.072;11.616;2024-01-07T07:59:34;22.33;;;20.07;;
9224;SDS011;4647;48.072;11.616;2024-01-07T08:02:05;26.77;;;23.87;;
9224;SDS011;4647;48.072;11.616;2024-01-07T08:04:34;31.73;;;28.07;;
9224;SDS011;4647;48.072;11.616;2024-01-07T08:07:02;21.07;;;19.03;;
9224;SDS011;4647;48.072;11.616;2024-01-07T08:09:31;24.60;;;22.03;;
9224;SDS011;4647;48.072;11.616;2024-01-07T08:12:02;28.23;;;25.10;;
9224;SDS011;4647;48.072;11.616;2024-01-07T08:14:32;30.30;;;24.23;;
9224;SDS011;4647;48.072;11.616;2024-01-07T08:17:01;24.20;;;21.53;;
9224;SDS011;4647;48.072;11.616;2024-01-07T08:19:32;19.10;;;17.23;;
9224;SDS011;4647;48.072;11.616;2024-01-07T08:22:01;29.00;;;26.13;;
9224;SDS011;4647;48.072;11.616;2024-01-07T08:24:29;26.40;;;23.63;;
9224;SDS011;4647;48.072;11.616;2024-01-07T08:26:58;24.60;;;21.93;;
9224;SDS011;4647;48.072;11.616;2024-01-07T08:29:27;27.87;;;24.87;;
9224;SDS011;4647;48.072;11.616;2024-01-07T08:31:56;22.43;;;20.10;;
9224;SDS011;4647;48.072;11.616;2024-01-07T08:34:24;28.93;;;25.30;;
9224;SDS011;4647;48.072;11.616;2024-01-07T08:36:55;21.13;;;18.80;;
9224;SDS011;4647;48.072;11.616;2024-01-07T08:39:24;30.13;;;26.87;;
9224;SDS011;4647;48.072;11.616;2024-01-07T08:41:54;29.77;;;26.07;;
9224;SDS011;4647;48.072;11.616;2024-01-07T08:44:25;33.23;;;27.70;;
9224;SDS011;4647;48.072;11.616;2024-01-07T08:46:54;21.93;;;19.73;;
9224;SDS011;4647;48.072;11.616;2024-01-07T08:49:22;24.70;;;22.10;;
9224;SDS011;4647;48.072;11.616;2024-01-07T08:51:51;23.30;;;20.90;;
9224;SDS011;4647;48.072;11.616;2024-01-07T08:54:23;21.93;;;19.73;;
9224;SDS011;4647;48.072;11.616;2024-01-07T08:56:52;23.47;;;21.13;;
9224;SDS011;4647;48.072;11.616;2024-01-07T08:59:20;22.10;;;19.80;;
9224;SDS011;4647;48.072;11.616;2024-01-07T09:01:49;21.03;;;18.83;;
9224;SDS011;4647;48.072;11.616;2024-01-07T09:04:17;20.50;;;18.50;;
9224;SDS011;4647;48.072;11.616;2024-01-07T09:06:49;24.27;;;20.83;;
9224;SDS011;4647;48.072;11.616;2024-01-07T09:09:17;22.20;;;19.83;;
9224;SDS011;4647;48.072;11.616;2024-01-07T09:11:46;28.00;;;22.50;;
9224;SDS011;4647;48.072;11.616;2024-01-07T09:14:14;22.90;;;20.53;;
9224;SDS011;4647;48.072;11.616;2024-01-07T09:16:43;18.47;;;16.57;;
9224;SDS011;4647;48.072;11.616;2024-01-07T09:19:11;21.40;;;19.17;;
9224;SDS011;4647;48.072;11.616;2024-01-07T09:21:40;21.27;;;18.50;;
9224;SDS011;4647;48.072;11.616;2024-01-07T09:24:08;18.70;;;16.90;;
9224;SDS011;4647;48.072;11.616;2024-01-07T09:26:37;25.83;;;22.37;;
9224;SDS011;4647;48.072;11.616;2024-01-07T09:29:08;21.53;;;19.33;;
9224;SDS011;4647;48.072;11.616;2024-01-07T09:31:37;18.77;;;16.90;;
9224;SDS011;4647;48.072;11.616;2024-01-07T09:34:06;22.30;;;19.57;;
9224;SDS011;4647;48.072;11.616;2024-01-07T09:36:34;18.30;;;15.90;;
9224;SDS011;4647;48.072;11.616;2024-01-07T09:39:03;23.80;;;21.20;;
9224;SDS011;4647;48.072;11.616;2024-01-07T09:41:32;25.20;;;22.60;;
9224;SDS011;4647;48.072;11.616;2024-01-07T09:44:01;25.30;;;22.33;;
9224;SDS011;4647;48.072;11.616;2024-01-07T09:46:34;22.77;;;20.40;;
9224;SDS011;4647;48.072;11.616;2024-01-07T09:49:05;21.60;;;19.40;;
9224;SDS011;4647;48.072;11.616;2024-01-07T09:51:35;21.23;;;18.93;;
9224;SDS011;4647;48.072;11.616;2024-01-07T09:54:04;20.70;;;18.60;;
9224;SDS011;4647;48.072;11.616;2024-01-07T09:56:39;26.90;;;23.33;;
9224;SDS011;4647;48.072;11.616;2024-01-07T09:59:14;20.20;;;18.10;;
9224;SDS011;4647;48.072;11.616;2024-01-07T10:01:47;19.77;;;17.37;;
9224;SDS011;4647;48.072;11.616;2024-01-07T10:04:17;22.70;;;20.30;;
9224;SDS011;4647;48.072;11.616;2024-01-07T10:06:46;22.10;;;19.90;;
9224;SDS011;4647;48.072;11.616;2024-01-07T10:09:14;20.33;;;18.23;;
9224;SDS011;4647;48.072;11.616;2024-01-07T10:11:44;19.87;;;17.80;;
9224;SDS011;4647;48.072;11.616;2024-01-07T10:14:12;17.90;;;16.10;;
9224;SDS011;4647;48.072;11.616;2024-01-07T10:16:41;17.60;;;15.70;;
9224;SDS011;4647;48.072;11.616;2024-01-07T10:19:14;23.80;;;19.37;;
9224;SDS011;4647;48.072;11.616;2024-01-07T10:21:52;18.73;;;16.53;;
9224;SDS011;4647;48.072;11.616;2024-01-07T10:24:31;19.57;;;17.50;;
9224;SDS011;4647;48.072;11.616;2024-01-07T10:27:04;21.20;;;18.97;;
9224;SDS011;4647;48.072;11.616;2024-01-07T10:29:33;17.77;;;16.07;;
9224;SDS011;4647;48.072;11.616;2024-01-07T10:32:03;19.70;;;17.70;;
9224;SDS011;4647;48.072;11.616;2024-01-07T10:34:35;23.07;;;20.60;;
9224;SDS011;4647;48.072;11.616;2024-01-07T10:37:04;19.50;;;17.50;;
9224;SDS011;4647;48.072;11.616;2024-01-07T10:39:33;23.60;;;21.10;;
9224;SDS011;4647;48.072;11.616;2024-01-07T10:42:02;20.30;;;18.30;;
9224;SDS011;4647;48.072;11.616;2024-01-07T10:44:32;19.20;;;17.27;;
9224;SDS011;4647;48.072;11.616;2024-01-07T10:47:01;19.60;;;17.73;;
9224;SDS011;4647;48.072;11.616;2024-01-07T10:49:37;16.00;;;14.40;;
9224;SDS011;4647;48.072;11.616;2024-01-07T10:52:12;18.30;;;16.40;;
9224;SDS011;4647;48.072;11.616;2024-01-07T10:54:40;23.17;;;19.40;;
9224;SDS011;4647;48.072;11.616;2024-01-07T10:57:13;20.53;;;18.33;;
9224;SDS011;4647;48.072;11.616;2024-01-07T10:59:48;18.93;;;17.00;;
9224;SDS011;4647;48.072;11.616;2024-01-07T11:02:19;21.77;;;19.50;;
9224;SDS011;4647;48.072;11.616;2024-01-07T11:04:54;20.60;;;18.50;;
9224;SDS011;4647;48.072;11.616;2024-01-07T11:07:31;20.67;;;18.53;;
9224;SDS011;4647;48.072;11.616;2024-01-07T11:10:08;16.73;;;15.00;;
9224;SDS011;4647;48.072;11.616;2024-01-07T11:12:43;16.87;;;15.17;;
9224;SDS011;4647;48.072;11.616;2024-01-07T11:15:11;17.77;;;15.40;;
9224;SDS011;4647;48.072;11.616;2024-01-07T11:18:00;15.63;;;14.13;;
9224;SDS011;4647;48.072;11.616;2024-01-07T11:20:33;17.20;;;15.60;;
9224;SDS011;4647;48.072;11.616;2024-01-07T11:25:58;16.67;;;14.97;;
9224;SDS011;4647;48.072;11.616;2024-01-07T11:28:42;17.17;;;15.23;;
9224;SDS011;4647;48.072;11.616;2024-01-07T11:31:11;17.20;;;15.47;;
9224;SDS011;4647;48.072;11.616;2024-01-07T11:33:41;15.77;;;14.17;;
9224;SDS011;4647;48.072;11.616;2024-01-07T11:36:14;13.47;;;12.13;;
9224;SDS011;4647;48.072;11.616;2024-01-07T11:38:43;14.47;;;13.07;;
9224;SDS011;4647;48.072;11.616;2024-01-07T11:41:13;15.63;;;14.13;;
9224;SDS011;4647;48.072;11.616;2024-01-07T11:43:54;16.50;;;14.73;;
9224;SDS011;4647;48.072;11.616;2024-01-07T11:46:24;15.37;;;13.87;;
9224;SDS011;4647;48.072;11.616;2024-01-07T11:48:53;17.20;;;15.50;;
9224;SDS011;4647;48.072;11.616;2024-01-07T11:51:27;16.57;;;14.97;;
9224;SDS011;4647;48.072;11.616;2024-01-07T11:54:00;15.87;;;14.30;;
9224;SDS011;4647;48.072;11.616;2024-01-07T11:56:29;16.87;;;15.30;;
9224;SDS011;4647;48.072;11.616;2024-01-07T11:58:58;17.07;;;15.37;;
9224;SDS011;4647;48.072;11.616;2024-01-07T12:01:26;16.67;;;15.07;;
9224;SDS011;4647;48.072;11.616;2024-01-07T12:03:54;14.97;;;13.57;;
9224;SDS011;4647;48.072;11.616;2024-01-07T12:06:23;16.83;;;15.13;;
9224;SDS011;4647;48.072;11.616;2024-01-07T12:08:54;16.67;;;15.10;;
9224;SDS011;4647;48.072;11.616;2024-01-07T12:11:23;18.00;;;16.30;;
9224;SDS011;4647;48.072;11.616;2024-01-07T12:13:51;16.50;;;14.87;;
9224;SDS011;4647;48.072;11.616;2024-01-07T12:16:20;15.77;;;14.17;;
9224;SDS011;4647;48.072;11.616;2024-01-07T12:18:48;15.23;;;13.83;;
9224;SDS011;4647;48.072;11.616;2024-01-07T12:21:18;19.20;;;17.27;;
9224;SDS011;4647;48.072;11.616;2024-01-07T12:23:48;17.37;;;15.77;;
9224;SDS011;4647;48.072;11.616;2024-01-07T12:26:20;18.63;;;16.83;;
9224;SDS011;4647;48.072;11.616;2024-01-07T12:28:52;17.93;;;16.30;;
9224;SDS011;4647;48.072;11.616;2024-01-07T12:31:22;20.60;;;18.40;;
9224;SDS011;4647;48.072;11.616;2024-01-07T12:33:52;16.30;;;14.77;;
9224;SDS011;4647;48.072;11.616;2024-01-07T12:36:21;18.50;;;16.77;;
9224;SDS011;4647;48.072;11.616;2024-01-07T12:38:49;19.83;;;17.77;;
9224;SDS011;4647;48.072;11.616;2024-01-07T12:41:22;15.70;;;14.30;;
9224;SDS011;4647;48.072;11.616;2024-01-07T12:43:50;20.73;;;16.37;;
9224;SDS011;4647;48.072;11.616;2024-01-07T12:46:19;15.17;;;13.67;;
9224;SDS011;4647;48.072;11.616;2024-01-07T12:48:48;15.83;;;14.23;;
9224;SDS011;4647;48.072;11.616;2024-01-07T12:51:16;14.27;;;12.97;;
9224;SDS011;4647;48.072;11.616;2024-01-07T12:53:45;14.23;;;12.80;;
9224;SDS011;4647;48.072;11.616;2024-01-07T12:56:13;17.37;;;15.67;;
9224;SDS011;4647;48.072;11.616;2024-01-07T12:58:45;16.90;;;15.30;;
9224;SDS011;4647;48.072;11.616;2024-01-07T13:01:13;15.57;;;13.57;;
9224;SDS011;4647;48.072;11.616;2024-01-07T13:03:42;16.67;;;15.17;;
9224;SDS011;4647;48.072;11.616;2024-01-07T13:06:10;16.27;;;14.67;;
9224;SDS011;4647;48.072;11.616;2024-01-07T13:08:39;16.87;;;15.17;;
9224;SDS011;4647;48.072;11.616;2024-01-07T13:11:08;18.70;;;16.83;;
9224;SDS011;4647;48.072;11.616;2024-01-07T13:13:39;15.87;;;13.40;;
9224;SDS011;4647;48.072;11.616;2024-01-07T13:16:10;16.27;;;14.60;;
9224;SDS011;4647;48.072;11.616;2024-01-07T13:18:38;15.57;;;13.97;;
9224;SDS011;4647;48.072;11.616;2024-01-07T13:21:07;18.10;;;15.93;;
9224;SDS011;4647;48.072;11.616;2024-01-07T13:23:35;15.47;;;13.97;;
9224;SDS011;4647;48.072;11.616;2024-01-07T13:26:05;16.43;;;14.27;;
9224;SDS011;4647;48.072;11.616;2024-01-07T13:28:34;15.90;;;14.40;;
9224;SDS011;4647;48.072;11.616;2024-01-07T13:31:02;13.43;;;12.03;;
9224;SDS011;4647;48.072;11.616;2024-01-07T13:33:34;14.07;;;12.67;;
9224;SDS011;4647;48.072;11.616;2024-01-07T13:36:03;13.97;;;12.70;;
9224;SDS011;4647;48.072;11.616;2024-01-07T13:38:34;16.37;;;14.47;;
9224;SDS011;4647;48.072;11.616;2024-01-07T13:41:03;14.50;;;13.00;;
9224;SDS011;4647;48.072;11.616;2024-01-07T13:43:32;13.23;;;11.93;;
9224;SDS011;4647;48.072;11.616;2024-01-07T13:46:02;11.53;;;10.33;;
9224;SDS011;4647;48.072;11.616;2024-01-07T13:48:30;14.23;;;12.80;;
9224;SDS011;4647;48.072;11.616;2024-01-07T13:51:04;13.33;;;12.00;;
9224;SDS011;4647;48.072;11.616;2024-01-07T13:53:32;13.23;;;11.57;;
9224;SDS011;4647;48.072;11.616;2024-01-07T13:56:01;17.53;;;15.83;;
9224;SDS011;4647;48.072;11.616;2024-01-07T13:58:29;15.90;;;14.30;;
9224;SDS011;4647;48.072;11.616;2024-01-07T14:00:58;17.37;;;15.57;;
9224;SDS011;4647;48.072;11.616;2024-01-07T14:03:26;16.07;;;14.47;;
9224;SDS011;4647;48.072;11.616;2024-01-07T14:05:57;17.83;;;15.93;;
9224;SDS011;4647;48.072;11.616;2024-01-07T14:08:26;18.43;;;16.60;;
9224;SDS011;4647;48.072;11.616;2024-01-07T14:10:54;16.40;;;14.90;;
9224;SDS011;4647;48.072;11.616;2024-01-07T14:13:23;15.60;;;14.10;;
9224;SDS011;4647;48.072;11.616;2024-01-07T14:15:51;18.63;;;16.83;;
9224;SDS011;4647;48.072;11.616;2024-01-07T14:18:20;15.43;;;14.00;;
9224;SDS011;4647;48.072;11.616;2024-01-07T14:20:48;15.40;;;13.83;;
9224;SDS011;4647;48.072;11.616;2024-01-07T14:23:20;16.13;;;14.47;;
9224;SDS011;4647;48.072;11.616;2024-01-07T14:25:49;19.17;;;17.20;;
9224;SDS011;4647;48.072;11.616;2024-01-07T14:28:17;18.43;;;16.57;;
9224;SDS011;4647;48.072;11.616;2024-01-07T14:30:48;19.00;;;17.10;;
9224;SDS011;4647;48.072;11.616;2024-01-07T14:33:17;17.77;;;16.00;;
9224;SDS011;4647;48.072;11.616;2024-01-07T14:35:45;21.37;;;19.17;;
9224;SDS011;4647;48.072;11.616;2024-01-07T14:38:14;17.53;;;15.80;;
9224;SDS011;4647;48.072;11.616;2024-01-07T14:40:45;22.60;;;20.67;;
9224;SDS011;4647;48.072;11.616;2024-01-07T14:43:16;17.53;;;15.83;;
9224;SDS011;4647;48.072;11.616;2024-01-07T14:45:44;16.23;;;14.53;;
9224;SDS011;4647;48.072;11.616;2024-01-07T14:48:12;72.87;;;21.60;;
9224;SDS011;4647;48.072;11.616;2024-01-07T14:50:42;16.67;;;15.10;;